createdAt,value
2019-05-06T00:01:24.938Z,3.10
2019-05-06T00:04:00.870Z,3.27
2019-05-06T00:06:30.253Z,3.17
2019-05-06T00:09:11.769Z,3.53
2019-05-06T00:11:57.274Z,3.23
2019-05-06T00:17:37.051Z,3.80
2019-05-06T00:20:09.050Z,3.30
2019-05-06T00:22:43.503Z,3.90
2019-05-06T00:25:40.966Z,3.37
2019-05-06T00:28:35.352Z,3.47
2019-05-06T00:31:15.940Z,3.40
2019-05-06T00:33:47.620Z,3.67
2019-05-06T00:36:25.591Z,3.47
2019-05-06T00:38:58.707Z,3.93
2019-05-06T00:41:49.605Z,4.07
2019-05-06T00:44:23.927Z,4.40
2019-05-06T00:47:20.544Z,3.80
2019-05-06T00:49:56.613Z,4.13
2019-05-06T00:52:36.589Z,4.70
2019-05-06T00:55:10.906Z,4.10
2019-05-06T00:57:44.775Z,4.33
2019-05-06T01:00:57.328Z,4.00
2019-05-06T01:03:44.560Z,3.73
2019-05-06T01:06:14.316Z,4.57
2019-05-06T01:08:47.629Z,5.10
2019-05-06T01:11:27.386Z,4.83
2019-05-06T01:17:13.428Z,5.87
2019-05-06T01:19:45.812Z,5.97
2019-05-06T01:22:17.913Z,5.93
2019-05-06T01:24:48.814Z,7.07
2019-05-06T01:27:21.125Z,7.07
2019-05-06T01:30:05.955Z,6.30
2019-05-06T01:32:38.890Z,4.87
2019-05-06T01:35:21.040Z,6.07
2019-05-06T01:38:16.463Z,4.70
2019-05-06T01:41:06.767Z,5.33
2019-05-06T01:43:37.387Z,4.77
2019-05-06T01:46:16.466Z,5.43
2019-05-06T01:49:04.222Z,4.70
2019-05-06T01:51:54.407Z,4.70
2019-05-06T01:54:26.299Z,5.10
2019-05-06T01:57:17.204Z,4.80
2019-05-06T01:59:50.523Z,4.50
2019-05-06T02:02:24.853Z,4.60
2019-05-06T02:05:13.990Z,4.87
2019-05-06T02:07:49.464Z,4.17
2019-05-06T02:10:43.570Z,4.77
2019-05-06T02:13:15.205Z,4.40
2019-05-06T02:15:50.455Z,4.50
2019-05-06T02:18:33.977Z,4.90
2019-05-06T02:21:55.710Z,4.77
2019-05-06T02:24:33.813Z,5.03
2019-05-06T02:27:05.396Z,4.97
2019-05-06T02:29:47.229Z,5.13
2019-05-06T02:32:31.636Z,4.90
2019-05-06T02:35:35.956Z,5.17
2019-05-06T02:38:32.591Z,5.40
2019-05-06T02:41:03.256Z,5.17
2019-05-06T02:43:38.315Z,5.43
2019-05-06T02:46:09.319Z,5.27
2019-05-06T02:48:54.241Z,5.23
2019-05-06T02:51:28.189Z,5.20
2019-05-06T02:54:03.815Z,5.00
2019-05-06T02:56:36.236Z,4.53
2019-05-06T02:59:09.015Z,5.00
2019-05-06T03:01:43.427Z,5.03
2019-05-06T03:04:14.540Z,5.60
2019-05-06T03:06:44.982Z,5.10
2019-05-06T03:09:16.378Z,4.93
2019-05-06T03:11:53.607Z,5.13
2019-05-06T03:14:25.771Z,5.30
2019-05-06T03:17:03.248Z,4.73
2019-05-06T03:19:34.145Z,5.63
2019-05-06T03:22:27.669Z,4.80
2019-05-06T03:25:13.062Z,5.33
2019-05-06T03:27:47.545Z,4.53
2019-05-06T03:30:19.159Z,4.93
2019-05-06T03:33:31.963Z,5.00
2019-05-06T03:35:50.402Z,5.00
2019-05-06T03:38:09.960Z,4.83
2019-05-06T03:41:03.164Z,5.13
2019-05-06T03:43:39.292Z,4.93
2019-05-06T03:46:33.652Z,4.63
2019-05-06T03:49:08.738Z,4.73
2019-05-06T03:51:42.905Z,4.93
2019-05-06T03:54:16.444Z,5.17
2019-05-06T03:57:08.000Z,5.10
2019-05-06T03:59:40.038Z,4.97
2019-05-06T04:02:33.577Z,5.07
2019-05-06T04:05:04.474Z,5.07
2019-05-06T04:07:38.452Z,4.57
2019-05-06T04:10:14.253Z,4.87
2019-05-06T04:12:49.437Z,5.03
2019-05-06T04:15:23.013Z,4.73
2019-05-06T04:18:04.319Z,5.43
2019-05-06T10:29:22.260Z,2.53
2019-05-06T10:32:14.690Z,3.10
2019-05-06T10:34:46.375Z,2.70
2019-05-06T10:37:37.335Z,2.63
2019-05-06T10:40:17.618Z,2.70
2019-05-06T10:43:03.226Z,2.83
2019-05-06T10:45:33.655Z,2.70
2019-05-06T10:48:03.458Z,2.50
2019-05-06T10:50:37.048Z,2.87
2019-05-06T10:53:16.825Z,2.30
2019-05-06T10:56:02.139Z,2.47
2019-05-06T10:58:35.540Z,2.43
2019-05-06T11:01:27.652Z,2.67
2019-05-06T11:03:57.619Z,2.40
2019-05-06T11:06:27.191Z,2.20
2019-05-06T11:08:57.249Z,2.73
2019-05-06T11:11:38.153Z,2.57
2019-05-06T11:14:07.743Z,2.57
2019-05-06T11:16:42.967Z,2.37
2019-05-06T11:19:13.303Z,2.43
2019-05-06T11:21:45.198Z,2.50
2019-05-06T11:24:14.919Z,2.50
2019-05-06T11:26:53.348Z,2.60
2019-05-06T11:29:26.980Z,2.13
2019-05-06T11:32:15.709Z,2.40
2019-05-06T11:34:58.679Z,2.10
2019-05-06T11:37:54.368Z,2.10
2019-05-06T11:40:24.138Z,2.30
2019-05-06T11:42:57.058Z,2.37
2019-05-06T11:45:42.748Z,1.97
2019-05-06T11:48:14.693Z,2.10
2019-05-06T11:50:45.768Z,2.03
2019-05-06T11:53:27.152Z,2.00
2019-05-06T11:55:57.299Z,1.70
2019-05-06T11:58:49.286Z,2.20
2019-05-06T12:01:25.803Z,1.87
2019-05-06T12:04:02.451Z,1.70
2019-05-06T12:06:33.027Z,2.30
2019-05-06T12:09:06.390Z,2.00
2019-05-06T12:11:34.679Z,1.67
2019-05-06T12:14:19.634Z,2.00
2019-05-06T12:16:54.872Z,2.17
2019-05-06T12:19:22.895Z,2.23
2019-05-06T12:21:52.850Z,2.10
2019-05-06T12:24:23.066Z,2.10
2019-05-06T12:26:54.493Z,1.93
2019-05-06T12:29:24.164Z,2.17
2019-05-06T12:32:12.861Z,2.00
2019-05-06T12:34:44.473Z,1.93
2019-05-06T12:37:18.572Z,2.10
2019-05-06T12:39:58.034Z,2.03
2019-05-06T12:42:40.113Z,2.40
2019-05-06T12:45:44.051Z,1.47
2019-05-06T12:48:23.217Z,2.27
2019-05-06T12:50:52.946Z,2.10
2019-05-06T12:53:23.262Z,1.87
2019-05-06T12:55:53.042Z,2.00
2019-05-06T12:58:23.461Z,2.30
2019-05-06T13:00:57.062Z,1.90
2019-05-06T13:03:27.274Z,2.07
2019-05-06T13:05:59.629Z,2.20
2019-05-06T13:08:49.864Z,2.00
2019-05-06T13:11:02.991Z,2.23
2019-05-06T13:13:33.767Z,1.90
2019-05-06T13:16:03.903Z,2.20
2019-05-06T13:18:36.502Z,2.03
2019-05-06T13:21:08.286Z,1.90
2019-05-06T13:23:44.886Z,2.03
2019-05-06T13:26:14.835Z,1.60
2019-05-06T13:28:49.764Z,1.90
2019-05-06T13:31:21.677Z,1.83
2019-05-06T13:33:55.467Z,2.07
2019-05-06T13:36:25.644Z,2.10
2019-05-06T13:39:09.458Z,1.80
2019-05-06T13:41:32.554Z,1.97
2019-05-06T13:44:13.117Z,1.80
2019-05-06T13:46:46.815Z,1.70
2019-05-06T13:49:55.476Z,2.03
2019-05-06T13:52:29.010Z,2.00
2019-05-06T13:54:59.178Z,1.80
2019-05-06T13:57:32.098Z,1.80
2019-05-06T14:00:03.138Z,1.90
2019-05-06T14:02:45.464Z,2.40
2019-05-06T14:05:16.357Z,1.83
2019-05-06T14:07:46.191Z,2.20
2019-05-06T14:10:23.282Z,1.80
2019-05-06T14:12:54.086Z,2.10
2019-05-06T14:15:34.051Z,2.57
2019-05-06T14:18:03.775Z,1.90
2019-05-06T14:20:33.698Z,2.43
2019-05-06T14:23:03.569Z,2.10
2019-05-06T14:26:04.384Z,2.40
2019-05-06T14:28:45.548Z,1.93
2019-05-06T14:31:26.035Z,2.70
2019-05-06T14:33:55.826Z,3.40
2019-05-06T14:36:28.865Z,3.67
2019-05-06T14:39:04.926Z,2.97
2019-05-06T14:41:34.502Z,3.50
2019-05-06T14:44:05.378Z,3.07
2019-05-06T14:47:12.650Z,3.43
2019-05-06T14:49:45.386Z,3.00
2019-05-06T14:52:15.223Z,3.50
2019-05-06T14:54:56.220Z,3.33
2019-05-06T14:57:26.654Z,3.53
2019-05-06T15:00:04.356Z,4.10
2019-05-06T15:02:36.395Z,3.50
2019-05-06T15:05:07.141Z,3.73
2019-05-06T15:07:37.710Z,3.20
2019-05-06T15:10:27.062Z,3.63
2019-05-06T15:13:02.560Z,4.00
2019-05-06T15:15:48.266Z,2.67
2019-05-06T15:18:45.271Z,3.03
2019-05-06T15:21:36.473Z,2.90
2019-05-06T15:24:02.656Z,3.50
2019-05-06T15:26:36.102Z,2.90
2019-05-06T15:29:30.990Z,2.57
2019-05-06T15:32:23.401Z,2.90
2019-05-06T15:35:22.816Z,2.50
2019-05-06T15:37:56.298Z,3.13
2019-05-06T15:40:36.874Z,2.77
2019-05-06T15:43:14.239Z,3.13
2019-05-06T15:46:32.168Z,3.07
2019-05-06T15:49:03.763Z,2.90
2019-05-06T15:51:52.458Z,2.97
2019-05-06T15:54:38.191Z,3.13
2019-05-06T15:57:22.952Z,2.50
2019-05-06T15:59:57.199Z,3.00
2019-05-06T16:02:48.046Z,2.77
2019-05-06T16:05:26.532Z,3.10
2019-05-06T16:08:02.929Z,2.67
2019-05-06T16:10:51.223Z,3.03
2019-05-06T16:13:09.424Z,3.00
2019-05-06T16:16:06.969Z,3.20
2019-05-06T16:19:04.100Z,3.87
2019-05-06T16:21:37.043Z,3.33
2019-05-06T16:25:05.750Z,2.87
2019-05-06T16:27:12.427Z,3.07
2019-05-06T16:29:57.221Z,2.60
2019-05-06T16:32:30.146Z,3.20
2019-05-06T16:35:05.706Z,2.90
2019-05-06T16:37:42.161Z,2.50
2019-05-06T16:40:45.420Z,2.60
2019-05-06T16:43:22.134Z,2.67
2019-05-06T16:45:54.272Z,3.00
2019-05-06T16:51:18.618Z,2.63
2019-05-06T16:53:58.121Z,2.00
2019-05-06T16:56:56.323Z,2.40
2019-05-06T16:59:33.462Z,2.87
2019-05-06T17:02:16.863Z,2.20
2019-05-06T17:05:08.638Z,2.10
2019-05-06T17:07:39.608Z,2.70
2019-05-06T17:10:12.106Z,2.30
2019-05-06T17:12:53.406Z,4.63
2019-05-06T17:15:24.660Z,2.17
2019-05-06T17:17:55.349Z,2.43
2019-05-06T17:20:32.596Z,3.00
2019-05-06T17:23:03.518Z,2.53
2019-05-06T17:25:33.932Z,2.43
2019-05-06T17:28:36.699Z,2.30
2019-05-06T17:31:35.917Z,1.90
2019-05-06T17:34:14.911Z,2.30
2019-05-06T17:36:46.023Z,1.97
2019-05-06T17:39:18.471Z,2.10
2019-05-06T17:41:49.404Z,1.90
2019-05-06T17:44:22.762Z,2.47
2019-05-06T17:47:13.606Z,2.27
2019-05-06T17:49:47.375Z,2.60
2019-05-06T17:52:22.505Z,2.77
2019-05-06T17:54:52.944Z,2.40
2019-05-06T17:57:26.597Z,2.10
2019-05-06T18:00:07.246Z,2.43
2019-05-06T18:02:38.150Z,2.53
2019-05-06T18:05:08.909Z,2.20
2019-05-06T18:07:38.770Z,2.00
2019-05-06T18:10:09.035Z,2.00
2019-05-06T18:12:38.934Z,2.60
2019-05-06T18:15:08.960Z,2.43
2019-05-06T18:17:38.907Z,2.30
2019-05-06T18:20:13.379Z,2.60
2019-05-06T18:22:43.268Z,2.73
2019-05-06T18:25:14.498Z,2.70
2019-05-06T18:27:44.705Z,2.30
2019-05-06T18:30:23.270Z,2.37
2019-05-06T18:32:47.050Z,2.23
2019-05-06T18:35:28.826Z,2.53
2019-05-06T18:37:58.638Z,2.13
2019-05-06T18:40:52.845Z,2.43
2019-05-06T18:43:34.578Z,2.13
2019-05-06T18:46:07.727Z,1.77
2019-05-06T18:49:02.934Z,2.30
2019-05-06T18:51:32.978Z,2.10
2019-05-06T18:54:07.210Z,2.10
2019-05-06T18:56:39.566Z,2.33
2019-05-06T18:59:12.241Z,2.03
2019-05-06T19:01:46.242Z,2.27
2019-05-06T19:04:24.243Z,2.07
2019-05-06T19:07:08.727Z,2.20
2019-05-06T19:09:37.013Z,2.50
2019-05-06T19:12:07.153Z,2.33
2019-05-06T19:14:43.031Z,2.47
2019-05-06T19:17:13.755Z,2.30
2019-05-06T19:19:43.947Z,2.60
2019-05-06T19:22:15.820Z,2.67
2019-05-06T19:24:52.150Z,2.40
2019-05-06T19:27:24.867Z,2.30
2019-05-06T19:29:55.723Z,2.17
2019-05-06T19:32:25.950Z,2.40
2019-05-06T19:34:57.115Z,2.07
2019-05-06T19:37:32.940Z,2.43
2019-05-06T19:40:02.895Z,2.13
2019-05-06T19:42:48.892Z,2.50
2019-05-06T19:45:09.438Z,2.43
2019-05-06T19:47:49.108Z,2.60
2019-05-06T19:50:25.529Z,2.27
2019-05-06T19:52:55.027Z,2.70
2019-05-06T19:55:25.196Z,2.20
2019-05-06T19:57:55.017Z,2.60
2019-05-06T20:00:25.855Z,2.93
2019-05-06T20:02:57.012Z,2.20
2019-05-06T20:05:42.611Z,2.90
2019-05-06T20:08:28.933Z,2.40
2019-05-06T20:11:26.395Z,2.40
2019-05-06T20:13:56.632Z,2.10
2019-05-06T20:16:27.840Z,2.57
2019-05-06T20:18:57.984Z,2.67
2019-05-06T20:21:27.759Z,2.70
2019-05-06T20:24:02.247Z,2.47
2019-05-06T20:26:33.359Z,3.53
2019-05-06T20:29:03.205Z,3.33
2019-05-06T20:31:33.211Z,3.23
2019-05-06T20:34:03.064Z,3.30
2019-05-06T20:36:35.154Z,2.80
2019-05-06T20:39:06.903Z,3.20
2019-05-06T20:41:38.058Z,2.63
2019-05-06T20:44:37.355Z,3.03
2019-05-06T20:47:52.513Z,3.50
2019-05-06T20:50:28.129Z,3.20
2019-05-06T20:53:36.180Z,3.40
2019-05-06T20:56:33.357Z,2.50
2019-05-06T20:59:03.258Z,2.70
2019-05-06T21:01:34.762Z,2.97
2019-05-06T21:04:06.486Z,2.90
2019-05-06T21:06:36.719Z,2.90
2019-05-06T21:09:09.578Z,3.40
2019-05-06T21:11:42.026Z,2.87
2019-05-06T21:14:14.090Z,3.30
2019-05-06T21:16:48.214Z,3.07
2019-05-06T21:19:18.297Z,3.20
2019-05-06T21:21:48.182Z,2.90
2019-05-06T21:24:22.479Z,3.90
2019-05-06T21:26:53.119Z,3.47
2019-05-06T21:29:24.176Z,3.13
2019-05-06T21:31:54.016Z,3.90
2019-05-06T21:34:23.919Z,3.70
2019-05-06T21:36:54.048Z,3.47
2019-05-06T21:39:25.133Z,3.53
2019-05-06T21:41:57.228Z,3.30
2019-05-06T21:44:27.703Z,3.43
2019-05-06T21:46:57.584Z,3.33
2019-05-06T21:49:27.510Z,4.17
2019-05-06T21:52:02.211Z,3.60
2019-05-06T21:54:32.830Z,3.80
2019-05-06T21:57:22.687Z,4.03
2019-05-06T21:59:53.451Z,3.60
2019-05-06T22:02:23.881Z,3.50
2019-05-06T22:05:22.746Z,3.60
2019-05-06T22:08:16.516Z,3.63
2019-05-06T22:10:49.688Z,3.70
2019-05-06T22:13:24.401Z,3.80
2019-05-06T22:15:56.030Z,3.63
2019-05-06T22:18:30.788Z,4.37
2019-05-06T22:21:13.780Z,4.10
2019-05-06T22:24:08.740Z,3.83
2019-05-06T22:26:40.006Z,3.13
2019-05-06T22:29:09.838Z,3.77
2019-05-06T22:31:48.880Z,3.30
2019-05-06T22:34:45.291Z,3.07
2019-05-06T22:37:23.626Z,3.40
2019-05-06T22:40:12.621Z,3.57
2019-05-06T22:42:52.814Z,3.20
2019-05-06T22:45:42.570Z,2.83
2019-05-06T22:49:17.864Z,3.53
2019-05-06T22:52:38.238Z,3.20
2019-05-06T22:55:29.635Z,3.57
2019-05-06T22:58:34.662Z,3.23
2019-05-06T23:01:54.336Z,4.00
2019-05-06T23:04:49.884Z,3.47
2019-05-06T23:07:34.236Z,3.50
2019-05-06T23:10:29.365Z,3.43
2019-05-06T23:16:35.036Z,3.77
2019-05-06T23:19:26.599Z,3.87
2019-05-06T23:22:04.318Z,3.70
2019-05-06T23:24:53.816Z,3.43
2019-05-06T23:27:44.355Z,3.47
2019-05-06T23:30:24.334Z,3.50
2019-05-06T23:32:55.047Z,3.70
2019-05-06T23:39:17.327Z,3.30
2019-05-06T23:42:22.846Z,3.47
2019-05-06T23:46:28.212Z,3.70
2019-05-06T23:49:32.710Z,3.53
2019-05-06T23:52:40.504Z,3.73
2019-05-06T23:55:52.469Z,3.83
2019-05-06T23:58:27.688Z,3.43
